createdAt,value
2019-05-14T00:00:13.444Z,3.40
2019-05-14T00:02:42.616Z,3.60
2019-05-14T00:05:12.272Z,3.40
2019-05-14T00:07:41.573Z,3.47
2019-05-14T00:10:11.925Z,3.80
2019-05-14T00:12:41.866Z,3.10
2019-05-14T00:15:12.047Z,3.30
2019-05-14T00:17:41.780Z,3.30
2019-05-14T00:20:13.241Z,3.33
2019-05-14T00:22:42.304Z,2.97
2019-05-14T00:25:11.822Z,3.13
2019-05-14T00:27:41.567Z,4.03
2019-05-14T00:30:11.658Z,3.27
2019-05-14T00:32:41.356Z,3.17
2019-05-14T00:35:11.258Z,3.30
2019-05-14T00:37:41.475Z,2.90
2019-05-14T00:40:11.765Z,2.90
2019-05-14T00:42:41.582Z,3.60
2019-05-14T00:45:11.508Z,2.97
2019-05-14T00:47:41.844Z,2.87
2019-05-14T00:50:11.609Z,3.20
2019-05-14T00:52:44.170Z,3.13
2019-05-14T00:55:12.003Z,2.80
2019-05-14T00:57:42.569Z,3.13
2019-05-14T01:00:12.341Z,3.57
2019-05-14T01:02:41.842Z,2.83
2019-05-14T01:05:12.441Z,3.10
2019-05-14T01:07:42.444Z,2.67
2019-05-14T01:10:31.355Z,3.47
2019-05-14T01:13:01.388Z,2.53
2019-05-14T01:15:32.234Z,3.10
2019-05-14T01:18:02.254Z,2.77
2019-05-14T01:20:32.136Z,2.97
2019-05-14T01:23:02.295Z,2.87
2019-05-14T01:25:31.947Z,3.20
2019-05-14T01:28:02.095Z,2.90
2019-05-14T01:30:32.100Z,2.90
2019-05-14T01:33:01.883Z,2.97
2019-05-14T01:35:31.728Z,3.17
2019-05-14T01:38:02.740Z,3.27
2019-05-14T01:40:32.184Z,2.70
2019-05-14T01:43:02.673Z,3.20
2019-05-14T01:45:32.542Z,3.13
2019-05-14T01:48:01.798Z,3.13
2019-05-14T01:50:32.183Z,3.30
2019-05-14T01:53:01.711Z,3.03
2019-05-14T01:55:32.490Z,3.33
2019-05-14T01:58:02.530Z,3.27
2019-05-14T02:00:31.755Z,3.37
2019-05-14T02:03:01.802Z,2.80
2019-05-14T02:05:31.477Z,3.60
2019-05-14T02:08:01.757Z,3.30
2019-05-14T02:10:31.647Z,3.17
2019-05-14T02:13:02.028Z,2.70
2019-05-14T02:15:39.560Z,2.30
2019-05-14T02:18:02.571Z,3.00
2019-05-14T02:20:32.269Z,3.10
2019-05-14T02:23:01.715Z,2.73
2019-05-14T02:25:32.013Z,3.17
2019-05-14T02:28:01.581Z,3.07
2019-05-14T02:30:45.124Z,2.53
2019-05-14T02:33:01.816Z,2.50
2019-05-14T02:35:31.098Z,2.80
2019-05-14T02:38:00.191Z,2.87
2019-05-14T02:40:29.686Z,2.70
2019-05-14T02:42:59.537Z,2.47
2019-05-14T02:45:30.358Z,2.80
2019-05-14T02:48:00.568Z,2.70
2019-05-14T02:50:29.851Z,2.90
2019-05-14T02:52:59.897Z,3.07
2019-05-14T02:55:30.159Z,2.57
2019-05-14T02:58:00.006Z,2.40
2019-05-14T03:00:30.312Z,2.80
2019-05-14T03:03:00.074Z,2.63
2019-05-14T03:05:29.710Z,2.30
2019-05-14T03:07:59.900Z,2.77
2019-05-14T03:10:30.333Z,2.40
2019-05-14T03:13:00.055Z,2.50
2019-05-14T03:15:29.643Z,2.67
2019-05-14T03:17:59.893Z,2.53
2019-05-14T03:20:29.638Z,2.43
2019-05-14T03:23:07.948Z,2.60
2019-05-14T03:25:30.438Z,2.90
2019-05-14T03:28:00.099Z,3.10
2019-05-14T03:30:32.145Z,2.90
2019-05-14T03:33:02.921Z,2.63
2019-05-14T03:35:41.498Z,2.60
2019-05-14T03:38:02.508Z,2.40
2019-05-14T03:40:31.888Z,3.10
2019-05-14T03:43:01.229Z,2.60
2019-05-14T03:45:30.440Z,3.23
2019-05-14T03:47:59.568Z,2.73
2019-05-14T03:50:29.740Z,3.27
2019-05-14T03:53:00.373Z,2.83
2019-05-14T03:55:29.785Z,3.13
2019-05-14T03:57:59.631Z,2.80
2019-05-14T04:00:50.366Z,3.13
2019-05-14T04:03:20.518Z,2.80
2019-05-14T04:05:50.223Z,2.80
2019-05-14T04:08:21.384Z,2.80
2019-05-14T04:10:54.145Z,2.90
2019-05-14T04:13:24.621Z,3.23
2019-05-14T04:15:55.561Z,2.80
2019-05-14T04:18:28.918Z,2.97
2019-05-14T04:20:59.390Z,2.50
2019-05-14T04:23:29.933Z,2.90
2019-05-14T04:26:01.017Z,2.90
2019-05-14T04:28:33.573Z,3.20
2019-05-14T04:31:04.028Z,2.87
2019-05-14T04:33:35.040Z,3.17
2019-05-14T04:36:04.486Z,2.77
2019-05-14T04:38:33.716Z,3.73
2019-05-14T04:41:03.124Z,3.37
2019-05-14T04:43:32.501Z,3.73
2019-05-14T04:46:01.719Z,3.07
2019-05-14T04:48:37.048Z,3.00
2019-05-14T04:51:01.971Z,2.87
2019-05-14T04:53:31.282Z,3.40
2019-05-14T04:56:00.635Z,3.67
2019-05-14T04:58:30.161Z,3.03
2019-05-14T05:01:00.925Z,3.07
2019-05-14T05:03:31.626Z,3.67
2019-05-14T05:06:01.043Z,3.30
2019-05-14T05:08:30.988Z,2.90
2019-05-14T05:11:00.529Z,3.57
2019-05-14T05:13:30.457Z,3.30
2019-05-14T05:15:59.711Z,3.03
2019-05-14T05:18:29.672Z,3.50
2019-05-14T05:20:59.151Z,3.00
2019-05-14T05:23:28.467Z,2.87
2019-05-14T05:25:58.565Z,3.13
2019-05-14T05:28:28.546Z,2.83
2019-05-14T05:31:01.929Z,2.80
2019-05-14T05:33:34.112Z,3.07
2019-05-14T05:36:04.625Z,3.23
2019-05-14T05:38:34.256Z,2.90
2019-05-14T05:41:04.952Z,2.60
2019-05-14T05:43:34.054Z,3.23
2019-05-14T05:46:03.220Z,3.40
2019-05-14T05:48:32.637Z,3.13
2019-05-14T05:51:01.864Z,3.10
2019-05-14T05:53:30.945Z,2.90
2019-05-14T05:56:00.300Z,3.67
2019-05-14T05:58:30.138Z,2.70
2019-05-14T06:00:59.777Z,2.80
2019-05-14T06:03:29.964Z,2.90
2019-05-14T06:05:59.818Z,2.77
2019-05-14T06:08:29.009Z,3.03
2019-05-14T06:10:59.229Z,2.90
2019-05-14T06:13:28.848Z,3.13
2019-05-14T06:15:59.150Z,3.15
2019-05-14T06:18:28.834Z,3.20
2019-05-14T06:20:58.590Z,2.90
2019-05-14T06:23:29.655Z,2.77
2019-05-14T06:25:59.823Z,3.00
2019-05-14T06:28:33.384Z,3.17
2019-05-14T06:31:00.752Z,3.20
2019-05-14T06:33:30.096Z,3.85
2019-05-14T06:35:59.377Z,3.10
2019-05-14T06:38:29.972Z,3.20
2019-05-14T06:40:59.547Z,3.60
2019-05-14T06:43:29.131Z,3.85
2019-05-14T06:45:58.729Z,3.63
2019-05-14T06:48:34.491Z,3.80
2019-05-14T06:50:59.177Z,3.43
2019-05-14T06:53:28.989Z,3.27
2019-05-14T06:56:03.117Z,2.87
2019-05-14T06:58:32.321Z,2.57
2019-05-14T07:01:01.513Z,2.77
2019-05-14T07:03:30.831Z,2.87
2019-05-14T07:06:00.294Z,2.98
2019-05-14T07:08:29.646Z,3.97
2019-05-14T07:10:59.351Z,2.77
2019-05-14T07:13:29.215Z,2.62
2019-05-14T07:15:58.703Z,2.90
2019-05-14T07:18:30.291Z,3.05
2019-05-14T07:20:58.986Z,2.60
2019-05-14T07:23:28.978Z,2.75
2019-05-14T07:25:58.934Z,3.00
2019-05-14T07:28:28.863Z,2.73
2019-05-14T07:30:59.259Z,2.60
2019-05-14T07:33:38.903Z,2.50
2019-05-14T07:36:08.954Z,2.63
2019-05-14T07:38:42.055Z,2.67
2019-05-14T07:41:11.235Z,2.60
2019-05-14T07:43:52.028Z,2.13
2019-05-14T07:46:21.303Z,2.08
2019-05-14T07:49:04.503Z,2.20
2019-05-14T07:51:21.436Z,2.37
2019-05-14T07:53:50.655Z,2.17
2019-05-14T07:56:19.890Z,3.30
2019-05-14T07:58:49.412Z,1.92
2019-05-14T08:01:19.039Z,2.37
2019-05-14T08:03:48.981Z,2.05
2019-05-14T08:06:18.953Z,1.87
2019-05-14T08:08:50.008Z,2.17
2019-05-14T08:11:19.436Z,2.00
2019-05-14T08:13:49.390Z,1.80
2019-05-14T08:16:19.019Z,2.00
2019-05-14T08:18:48.808Z,1.87
2019-05-14T08:21:19.383Z,2.05
2019-05-14T08:23:49.070Z,2.00
2019-05-14T08:26:19.091Z,1.67
2019-05-14T08:28:49.067Z,1.80
2019-05-14T08:31:18.891Z,1.67
2019-05-14T08:33:48.881Z,1.52
2019-05-14T08:36:18.664Z,1.90
2019-05-14T08:38:49.949Z,1.98
2019-05-14T08:41:19.861Z,1.55
2019-05-14T08:43:49.505Z,2.05
2019-05-14T08:46:21.195Z,1.87
2019-05-14T08:48:50.601Z,1.90
2019-05-14T08:51:19.829Z,1.80
2019-05-14T08:53:50.439Z,2.33
2019-05-14T08:56:20.042Z,2.05
2019-05-14T08:58:50.346Z,2.10
2019-05-14T09:01:23.766Z,2.27
2019-05-14T09:03:53.004Z,2.20
2019-05-14T09:06:22.511Z,1.57
2019-05-14T09:08:52.021Z,1.60
2019-05-14T09:11:24.861Z,1.75
2019-05-14T09:13:52.232Z,2.10
2019-05-14T09:16:38.325Z,1.60
2019-05-14T09:18:52.513Z,2.25
2019-05-14T09:21:21.805Z,1.40
2019-05-14T09:23:51.273Z,2.12
2019-05-14T09:26:20.426Z,1.80
2019-05-14T09:28:49.854Z,1.87
2019-05-14T09:31:20.439Z,2.10
2019-05-14T09:33:50.057Z,1.70
2019-05-14T09:36:23.859Z,1.98
2019-05-14T09:38:50.594Z,2.10
2019-05-14T09:41:19.884Z,2.52
2019-05-14T09:43:49.229Z,1.65
2019-05-14T09:46:18.726Z,1.82
2019-05-14T09:48:51.980Z,2.05
2019-05-14T09:51:21.244Z,1.80
2019-05-14T09:53:50.510Z,1.37
2019-05-14T09:56:19.750Z,1.20
2019-05-14T09:58:49.475Z,1.87
2019-05-14T10:01:19.690Z,1.55
2019-05-14T10:03:49.727Z,1.47
2019-05-14T10:06:20.605Z,1.60
2019-05-14T10:08:50.442Z,1.87
2019-05-14T10:11:19.863Z,1.50
2019-05-14T10:13:49.010Z,1.67
2019-05-14T10:16:18.981Z,1.57
2019-05-14T10:18:50.862Z,1.50
2019-05-14T10:21:19.579Z,1.42
2019-05-14T10:23:48.976Z,1.60
2019-05-14T10:26:18.768Z,1.40
2019-05-14T10:28:48.618Z,1.90
2019-05-14T10:31:18.606Z,2.00
2019-05-14T10:34:08.345Z,1.77
2019-05-14T10:36:37.911Z,1.67
2019-05-14T10:39:09.374Z,1.40
2019-05-14T10:41:38.828Z,1.45
2019-05-14T10:44:09.211Z,1.85
2019-05-14T10:46:38.612Z,1.70
2019-05-14T10:49:19.294Z,1.85
2019-05-14T10:51:39.090Z,1.82
2019-05-14T10:54:21.161Z,1.32
2019-05-14T10:56:39.271Z,1.47
2019-05-14T10:59:09.467Z,1.42
2019-05-14T11:01:39.174Z,1.72
2019-05-14T11:04:08.661Z,1.60
2019-05-14T11:06:38.820Z,1.60
2019-05-14T11:09:09.097Z,1.98
2019-05-14T11:11:38.454Z,1.77
2019-05-14T11:14:08.967Z,1.60
2019-05-14T11:16:41.751Z,2.10
2019-05-14T11:19:09.652Z,1.90
2019-05-14T11:21:39.314Z,1.80
2019-05-14T11:24:09.490Z,2.00
2019-05-14T11:26:39.363Z,2.27
2019-05-14T11:29:08.915Z,2.40
2019-05-14T11:31:39.094Z,2.40
2019-05-14T11:34:08.797Z,1.95
2019-05-14T11:36:38.852Z,2.30
2019-05-14T11:39:09.296Z,2.35
2019-05-14T11:41:39.113Z,2.40
2019-05-14T11:44:09.115Z,2.12
2019-05-14T11:46:47.706Z,2.33
2019-05-14T11:49:12.456Z,2.33
2019-05-14T11:51:59.343Z,2.02
2019-05-14T11:54:12.688Z,2.58
2019-05-14T11:56:42.206Z,2.52
2019-05-14T11:59:11.616Z,2.67
2019-05-14T12:01:40.904Z,2.05
2019-05-14T12:04:10.300Z,2.12
2019-05-14T12:06:39.627Z,1.85
2019-05-14T12:09:11.973Z,2.77
2019-05-14T12:11:40.864Z,2.77
2019-05-14T12:14:10.399Z,2.67
2019-05-14T12:16:40.382Z,2.22
2019-05-14T12:19:12.027Z,2.10
2019-05-14T12:21:57.427Z,2.90
2019-05-14T12:24:13.791Z,2.42
2019-05-14T12:26:43.395Z,2.62
2019-05-14T12:29:12.815Z,2.25
2019-05-14T12:31:42.092Z,2.62
2019-05-14T12:34:11.276Z,3.25
2019-05-14T12:36:40.528Z,3.00
2019-05-14T12:39:09.865Z,2.58
2019-05-14T12:41:39.178Z,2.55
2019-05-14T12:44:09.284Z,2.40
2019-05-14T12:46:39.161Z,2.30
2019-05-14T12:49:11.742Z,3.08
2019-05-14T12:51:42.446Z,2.45
2019-05-14T12:54:10.336Z,2.20
2019-05-14T12:56:39.581Z,2.83
2019-05-14T12:59:08.996Z,2.35
2019-05-14T13:01:42.389Z,2.62
2019-05-14T13:04:11.567Z,2.75
2019-05-14T13:06:40.924Z,2.98
2019-05-14T13:09:10.233Z,2.62
2019-05-14T13:11:41.578Z,2.67
2019-05-14T13:14:10.576Z,2.85
2019-05-14T13:16:39.811Z,3.20
2019-05-14T13:19:09.297Z,3.17
2019-05-14T13:21:39.064Z,2.72
2019-05-14T13:24:08.949Z,2.77
2019-05-14T13:26:39.056Z,2.90
2019-05-14T13:29:10.819Z,2.75
2019-05-14T13:31:40.314Z,2.52
2019-05-14T13:36:59.803Z,2.75
2019-05-14T13:39:29.168Z,2.65
2019-05-14T13:41:58.979Z,2.77
2019-05-14T13:44:29.384Z,3.00
2019-05-14T13:46:59.569Z,2.60
2019-05-14T13:49:30.557Z,4.40
2019-05-14T13:51:59.864Z,3.35
2019-05-14T13:54:31.657Z,3.12
2019-05-14T13:57:00.152Z,3.02
2019-05-14T13:59:29.576Z,3.05
2019-05-14T14:01:59.240Z,3.20
2019-05-14T14:04:30.250Z,3.15
2019-05-14T14:06:59.452Z,3.30
2019-05-14T14:09:31.537Z,3.55
2019-05-14T14:11:59.599Z,3.00
2019-05-14T14:14:31.694Z,3.02
2019-05-14T14:17:02.507Z,3.87
2019-05-14T14:19:34.051Z,3.70
2019-05-14T14:22:03.317Z,3.30
2019-05-14T14:24:34.956Z,3.05
2019-05-14T14:27:04.868Z,3.05
2019-05-14T14:29:34.207Z,3.55
2019-05-14T14:32:03.406Z,3.35
2019-05-14T14:34:32.635Z,3.05
2019-05-14T14:37:02.594Z,3.37
2019-05-14T14:39:31.953Z,3.05
2019-05-14T14:42:01.100Z,2.90
2019-05-14T14:44:30.800Z,3.20
2019-05-14T14:46:59.984Z,3.42
2019-05-14T14:49:29.259Z,3.08
2019-05-14T14:51:58.907Z,3.15
2019-05-14T14:54:28.802Z,3.20
2019-05-14T14:56:59.215Z,3.37
2019-05-14T14:59:30.398Z,3.02
2019-05-14T15:02:00.083Z,3.58
2019-05-14T15:04:29.427Z,3.58
2019-05-14T15:06:59.750Z,3.58
2019-05-14T15:09:29.333Z,3.55
2019-05-14T15:11:59.871Z,3.65
2019-05-14T15:14:29.854Z,3.37
2019-05-14T15:16:59.061Z,3.05
2019-05-14T15:19:29.791Z,3.55
2019-05-14T15:21:59.254Z,3.58
2019-05-14T15:24:28.716Z,3.45
2019-05-14T15:27:06.852Z,3.85
2019-05-14T15:29:29.170Z,3.58
2019-05-14T15:31:59.243Z,3.65
2019-05-14T15:34:29.673Z,3.05
2019-05-14T15:36:59.769Z,3.50
2019-05-14T15:39:30.183Z,3.10
2019-05-14T15:42:05.617Z,3.62
2019-05-14T15:44:47.176Z,3.55
2019-05-14T15:47:01.590Z,3.62
2019-05-14T15:49:30.876Z,3.47
2019-05-14T15:52:01.135Z,3.42
2019-05-14T15:54:42.040Z,3.50
2019-05-14T15:57:04.319Z,3.52
2019-05-14T15:59:34.130Z,3.70
2019-05-14T16:02:09.324Z,3.52
2019-05-14T16:04:38.923Z,3.87
2019-05-14T16:07:09.453Z,3.83
2019-05-14T16:09:39.684Z,3.90
2019-05-14T16:12:09.669Z,4.35
2019-05-14T16:14:39.048Z,3.40
2019-05-14T16:17:11.315Z,3.17
2019-05-14T16:19:39.327Z,3.50
2019-05-14T16:22:09.821Z,3.55
2019-05-14T16:24:55.830Z,3.87
2019-05-14T16:27:14.629Z,3.65
2019-05-14T16:29:45.804Z,4.03
2019-05-14T16:32:14.963Z,3.77
2019-05-14T16:34:51.710Z,3.40
2019-05-14T16:37:21.044Z,3.58
2019-05-14T16:39:50.117Z,3.50
2019-05-14T16:42:20.775Z,3.67
2019-05-14T16:44:56.359Z,4.25
2019-05-14T16:47:28.062Z,3.50
2019-05-14T16:49:59.016Z,3.20
2019-05-14T16:52:28.729Z,3.47
2019-05-14T16:55:17.316Z,3.60
2019-05-14T16:57:29.470Z,4.10
2019-05-14T16:59:58.850Z,4.03
2019-05-14T17:02:29.661Z,3.00
2019-05-14T17:04:59.080Z,3.37
2019-05-14T17:07:28.824Z,3.40
2019-05-14T17:09:58.491Z,3.27
2019-05-14T17:12:30.824Z,2.70
2019-05-14T17:14:59.035Z,3.47
2019-05-14T17:17:28.321Z,3.15
2019-05-14T17:19:58.802Z,3.10
2019-05-14T17:22:32.943Z,3.30
2019-05-14T17:24:59.120Z,2.80
2019-05-14T17:27:28.697Z,3.58
2019-05-14T17:29:58.942Z,3.72
2019-05-14T17:32:30.322Z,3.92
2019-05-14T17:34:59.175Z,3.37
2019-05-14T17:37:28.647Z,2.98
2019-05-14T17:39:58.287Z,3.30
2019-05-14T17:42:28.555Z,3.25
2019-05-14T17:44:58.917Z,2.90
2019-05-14T17:47:29.075Z,3.30
2019-05-14T17:49:59.090Z,2.98
2019-05-14T17:52:30.097Z,2.87
2019-05-14T17:54:59.320Z,2.52
2019-05-14T17:57:34.933Z,3.52
2019-05-14T17:59:59.477Z,3.20
2019-05-14T18:02:28.789Z,2.83
2019-05-14T18:04:59.317Z,2.83
2019-05-14T18:07:28.839Z,2.85
2019-05-14T18:09:58.831Z,2.85
2019-05-14T18:12:30.529Z,2.95
2019-05-14T18:14:59.068Z,3.00
2019-05-14T18:17:29.584Z,2.90
2019-05-14T18:19:59.164Z,2.92
2019-05-14T18:22:28.762Z,2.85
2019-05-14T18:25:02.086Z,3.55
2019-05-14T18:27:31.422Z,2.47
2019-05-14T18:30:01.821Z,3.33
2019-05-14T18:32:50.164Z,2.83
2019-05-14T18:35:19.436Z,3.87
2019-05-14T18:37:48.776Z,2.60
2019-05-14T18:40:18.315Z,2.98
2019-05-14T18:42:48.072Z,3.33
2019-05-14T18:45:18.990Z,2.85
2019-05-14T18:47:48.612Z,2.55
2019-05-14T18:50:19.545Z,2.62
2019-05-14T18:52:49.058Z,2.95
2019-05-14T18:55:18.818Z,3.15
2019-05-14T18:57:48.681Z,3.37
2019-05-14T19:00:18.670Z,2.42
2019-05-14T19:02:48.287Z,2.60
2019-05-14T19:05:18.450Z,2.83
2019-05-14T19:07:48.740Z,3.33
2019-05-14T19:10:18.631Z,2.70
2019-05-14T19:12:49.931Z,2.80
2019-05-14T19:15:19.090Z,2.85
2019-05-14T19:17:49.015Z,3.17
2019-05-14T19:20:22.106Z,2.60
2019-05-14T19:22:51.372Z,2.83
2019-05-14T19:25:20.534Z,2.90
2019-05-14T19:27:50.072Z,3.45
2019-05-14T19:30:20.440Z,3.67
2019-05-14T19:32:49.712Z,3.55
2019-05-14T19:35:19.313Z,3.58
2019-05-14T19:37:48.843Z,4.03
2019-05-14T19:40:18.930Z,3.80
2019-05-14T19:42:48.700Z,3.98
2019-05-14T19:45:17.972Z,4.22
2019-05-14T19:47:49.340Z,3.70
2019-05-14T19:50:18.883Z,3.85
2019-05-14T19:52:48.836Z,4.12
2019-05-14T19:55:18.869Z,3.62
2019-05-14T19:57:48.947Z,3.35
2019-05-14T20:00:24.666Z,3.70
2019-05-14T20:02:54.233Z,3.77
2019-05-14T20:05:23.486Z,3.80
2019-05-14T20:07:52.649Z,3.90
2019-05-14T20:10:21.971Z,3.52
2019-05-14T20:12:51.144Z,4.00
2019-05-14T20:15:20.431Z,4.10
2019-05-14T20:17:49.763Z,3.90
2019-05-14T20:20:20.349Z,3.90
2019-05-14T20:22:50.102Z,3.65
2019-05-14T20:25:19.543Z,4.20
2019-05-14T20:27:48.884Z,4.30
2019-05-14T20:30:18.914Z,3.90
2019-05-14T20:32:49.602Z,3.27
2019-05-14T20:35:30.764Z,3.90
2019-05-14T20:37:50.072Z,4.17
2019-05-14T20:40:19.327Z,3.60
2019-05-14T20:42:49.242Z,4.03
2019-05-14T20:45:19.222Z,4.00
2019-05-14T20:47:48.712Z,4.15
2019-05-14T20:50:19.413Z,4.33
2019-05-14T20:52:48.485Z,4.20
2019-05-14T20:55:19.048Z,4.15
2019-05-14T20:57:49.557Z,3.85
2019-05-14T21:00:19.207Z,4.15
2019-05-14T21:02:49.062Z,4.15
2019-05-14T21:05:18.859Z,4.45
2019-05-14T21:07:49.336Z,4.58
2019-05-14T21:10:20.359Z,4.30
2019-05-14T21:12:49.685Z,4.15
2019-05-14T21:15:19.242Z,3.83
2019-05-14T21:17:50.409Z,4.42
2019-05-14T21:20:21.719Z,4.42
2019-05-14T21:22:51.399Z,4.35
2019-05-14T21:25:21.182Z,3.83
2019-05-14T21:27:52.252Z,4.42
2019-05-14T21:30:24.548Z,4.35
2019-05-14T21:32:54.620Z,4.17
2019-05-14T21:35:24.019Z,4.22
2019-05-14T21:37:53.738Z,4.20
2019-05-14T21:40:23.138Z,4.90
2019-05-14T21:42:52.455Z,4.50
2019-05-14T21:45:21.870Z,4.87
2019-05-14T21:47:51.632Z,4.53
2019-05-14T21:50:21.177Z,4.55
2019-05-14T21:52:51.566Z,4.58
2019-05-14T21:55:40.160Z,4.93
2019-05-14T21:58:11.896Z,4.67
2019-05-14T22:00:51.897Z,4.60
2019-05-14T22:03:21.613Z,5.08
2019-05-14T22:05:51.706Z,5.00
2019-05-14T22:08:22.836Z,4.67
2019-05-14T22:10:54.486Z,4.53
2019-05-14T22:13:24.073Z,4.65
2019-05-14T22:15:58.949Z,5.10
2019-05-14T22:18:32.525Z,4.78
2019-05-14T22:21:08.860Z,4.87
2019-05-14T22:23:42.438Z,4.40
2019-05-14T22:26:12.029Z,4.75
2019-05-14T22:28:41.621Z,4.58
2019-05-14T22:31:10.934Z,4.80
2019-05-14T22:33:40.495Z,5.20
2019-05-14T22:36:09.901Z,4.90
2019-05-14T22:38:39.167Z,4.97
2019-05-14T22:41:11.437Z,4.60
2019-05-14T22:43:39.838Z,4.65
2019-05-14T22:46:09.354Z,5.12
2019-05-14T22:48:38.984Z,4.58
2019-05-14T22:51:08.786Z,4.53
2019-05-14T22:53:38.869Z,4.75
2019-05-14T22:56:08.289Z,4.35
2019-05-14T22:58:40.556Z,4.55
2019-05-14T23:01:14.723Z,4.40
2019-05-14T23:03:41.137Z,4.42
2019-05-14T23:06:10.707Z,4.95
2019-05-14T23:08:40.684Z,4.25
2019-05-14T23:11:10.118Z,4.75
2019-05-14T23:13:41.680Z,4.60
2019-05-14T23:16:10.592Z,4.28
2019-05-14T23:18:39.910Z,4.45
2019-05-14T23:21:09.225Z,4.28
2019-05-14T23:23:39.301Z,4.17
2019-05-14T23:26:08.844Z,4.42
2019-05-14T23:28:45.209Z,4.05
2019-05-14T23:31:09.522Z,4.58
2019-05-14T23:33:39.080Z,4.58
2019-05-14T23:36:08.933Z,4.60
2019-05-14T23:38:39.750Z,4.33
2019-05-14T23:41:09.050Z,4.53
2019-05-14T23:43:39.133Z,4.37
2019-05-14T23:46:09.312Z,4.05
2019-05-14T23:48:39.524Z,4.80
2019-05-14T23:51:08.981Z,4.67
2019-05-14T23:53:39.318Z,4.22
2019-05-14T23:56:08.965Z,4.70
2019-05-14T23:58:38.342Z,4.78
